sensor_id;sensor_type;location;lat;lon;timestamp;pressure;altitude;pressure_sealevel;temperature;humidity
19674;BME280;9986;50.610;7.230;2023-07-30T00:10:00;44549.88;;;18.00;100.00
19674;BME280;9986;50.610;7.230;2023-07-30T00:15:13;64421.54;;;18.00;100.00
19674;BME280;9986;50.610;7.230;2023-07-30T00:33:43;59834.49;;;17.73;100.00
19674;BME280;9986;50.610;7.230;2023-07-30T00:38:59;57619.25;;;17.70;100.00
19674;BME280;9986;50.610;7.230;2023-07-30T00:52:20;68279.52;;;17.76;100.00
19674;BME280;9986;50.610;7.230;2023-07-30T00:54:51;59215.21;;;17.72;100.00
19674;BME280;9986;50.610;7.230;2023-07-30T01:00:06;54950.45;;;17.74;100.00
19674;BME280;9986;50.610;7.230;2023-07-30T01:07:58;59825.34;;;17.64;100.00
19674;BME280;9986;50.610;7.230;2023-07-30T01:13:11;59798.29;;;17.63;100.00
19674;BME280;9986;50.610;7.230;2023-07-30T01:18:24;72503.31;;;17.73;100.00
19674;BME280;9986;50.610;7.230;2023-07-30T01:26:21;99000.73;;;17.71;100.00
19674;BME280;9986;50.610;7.230;2023-07-30T01:42:12;64846.62;;;17.29;100.00
19674;BME280;9986;50.610;7.230;2023-07-30T01:57:57;102871.47;;;17.41;100.00
19674;BME280;9986;50.610;7.230;2023-07-30T02:03:10;34094.04;;;17.05;100.00
19674;BME280;9986;50.610;7.230;2023-07-30T02:08:23;18918.88;;;17.03;100.00
19674;BME280;9986;50.610;7.230;2023-07-30T02:13:39;29935.29;;;17.34;100.00
19674;BME280;9986;50.610;7.230;2023-07-30T02:24:12;51568.70;;;17.56;100.00
19674;BME280;9986;50.610;7.230;2023-07-30T02:32:03;50060.73;;;17.62;100.00
19674;BME280;9986;50.610;7.230;2023-07-30T02:37:20;66400.75;;;17.59;100.00
19674;BME280;9986;50.610;7.230;2023-07-30T02:42:33;74348.30;;;17.60;100.00
19674;BME280;9986;50.610;7.230;2023-07-30T02:50:24;82491.31;;;17.65;100.00
19674;BME280;9986;50.610;7.230;2023-07-30T02:55:37;88608.93;;;17.67;100.00
19674;BME280;9986;50.610;7.230;2023-07-30T03:00:46;84701.05;;;17.67;100.00
19674;BME280;9986;50.610;7.230;2023-07-30T03:11:18;79085.87;;;17.56;100.00
19674;BME280;9986;50.610;7.230;2023-07-30T03:35:13;65859.71;;;17.30;100.00
19674;BME280;9986;50.610;7.230;2023-07-30T03:43:16;56599.99;;;17.40;100.00
19674;BME280;9986;50.610;7.230;2023-07-30T03:53:53;74175.73;;;17.57;100.00
19674;BME280;9986;50.610;7.230;2023-07-30T04:01:44;78748.94;;;17.57;100.00
19674;BME280;9986;50.610;7.230;2023-07-30T04:23:08;55776.35;;;17.58;100.00
19674;BME280;9986;50.610;7.230;2023-07-30T04:28:21;59814.76;;;17.55;100.00
19674;BME280;9986;50.610;7.230;2023-07-30T04:36:07;29442.80;;;17.49;100.00
19674;BME280;9986;50.610;7.230;2023-07-30T04:43:58;53420.20;;;17.58;100.00
19674;BME280;9986;50.610;7.230;2023-07-30T04:49:11;57825.64;;;17.57;100.00
19674;BME280;9986;50.610;7.230;2023-07-30T05:02:17;32797.27;;;17.69;100.00
19674;BME280;9986;50.610;7.230;2023-07-30T05:07:30;49396.50;;;17.71;100.00
19674;BME280;9986;50.610;7.230;2023-07-30T05:12:43;41827.04;;;17.52;100.00
19674;BME280;9986;50.610;7.230;2023-07-30T05:20:40;43674.04;;;17.55;100.00
19674;BME280;9986;50.610;7.230;2023-07-30T05:25:53;131153.94;;;17.47;100.00
19674;BME280;9986;50.610;7.230;2023-07-30T05:33:44;147210.14;;;17.56;100.00
19674;BME280;9986;50.610;7.230;2023-07-30T05:41:41;147221.53;;;17.61;100.00
19674;BME280;9986;50.610;7.230;2023-07-30T05:46:54;147241.75;;;17.69;100.00
19674;BME280;9986;50.610;7.230;2023-07-30T05:57:37;147235.44;;;17.66;100.00
19674;BME280;9986;50.610;7.230;2023-07-30T06:05:38;147213.92;;;17.58;100.00
19674;BME280;9986;50.610;7.230;2023-07-30T06:13:41;147244.30;;;17.70;100.00
19674;BME280;9986;50.610;7.230;2023-07-30T06:21:42;147224.06;;;17.62;100.00
19674;BME280;9986;50.610;7.230;2023-07-30T06:26:52;147220.23;;;17.60;100.00
19674;BME280;9986;50.610;7.230;2023-07-30T06:32:07;147198.72;;;17.52;100.00
19674;BME280;9986;50.610;7.230;2023-07-30T06:42:35;147150.66;;;17.33;100.00
19674;BME280;9986;50.610;7.230;2023-07-30T06:53:11;147168.34;;;17.40;100.00
19674;BME280;9986;50.610;7.230;2023-07-30T07:07:04;106729.73;;;17.04;100.00
19674;BME280;9986;50.610;7.230;2023-07-30T07:12:16;121676.70;;;17.34;100.00
19674;BME280;9986;50.610;7.230;2023-07-30T07:14:49;102663.43;;;17.20;100.00
19674;BME280;9986;50.610;7.230;2023-07-30T07:22:46;76798.02;;;16.93;100.00
19674;BME280;9986;50.610;7.230;2023-07-30T07:27:59;98509.02;;;16.83;100.00
19674;BME280;9986;50.610;7.230;2023-07-30T07:41:32;115802.28;;;16.25;100.00
19674;BME280;9986;50.610;7.230;2023-07-30T07:49:30;66779.06;;;16.51;100.00
19674;BME280;9986;50.610;7.230;2023-07-30T07:54:45;46797.97;;;16.79;100.00
19674;BME280;9986;50.610;7.230;2023-07-30T07:59:57;57055.02;;;16.91;100.00
19674;BME280;9986;50.610;7.230;2023-07-30T08:07:47;53018.35;;;16.89;100.00
19674;BME280;9986;50.610;7.230;2023-07-30T08:13:00;62952.52;;;16.95;100.00
19674;BME280;9986;50.610;7.230;2023-07-30T08:34:27;114406.59;;;16.97;100.00
19674;BME280;9986;50.610;7.230;2023-07-30T08:39:41;97866.28;;;17.05;100.00
19674;BME280;9986;50.610;7.230;2023-07-30T08:47:32;90765.90;;;17.33;100.00
19674;BME280;9986;50.610;7.230;2023-07-30T08:58:07;71621.94;;;17.45;100.00
19674;BME280;9986;50.610;7.230;2023-07-30T09:11:14;70643.59;;;17.74;100.00
19674;BME280;9986;50.610;7.230;2023-07-30T09:51:35;125904.83;;;18.63;100.00
19674;BME280;9986;50.610;7.230;2023-07-30T10:02:08;147307.58;;;17.94;100.00
19674;BME280;9986;50.610;7.230;2023-07-30T10:07:23;147343.03;;;18.08;100.00
19674;BME280;9986;50.610;7.230;2023-07-30T10:18:03;147452.02;;;18.51;100.00
19674;BME280;9986;50.610;7.230;2023-07-30T10:23:17;147421.63;;;18.39;100.00
19674;BME280;9986;50.610;7.230;2023-07-30T10:47:30;147760.02;;;19.72;100.00
19674;BME280;9986;50.610;7.230;2023-07-30T10:58:11;147654.81;;;19.31;100.00
19674;BME280;9986;50.610;7.230;2023-07-30T11:03:27;147653.52;;;19.30;100.00
19674;BME280;9986;50.610;7.230;2023-07-30T11:08:37;147635.78;;;19.23;100.00
19674;BME280;9986;50.610;7.230;2023-07-30T11:13:51;147699.16;;;19.48;100.00
19674;BME280;9986;50.610;7.230;2023-07-30T11:21:49;147776.50;;;19.78;100.00
19674;BME280;9986;50.610;7.230;2023-07-30T11:24:20;147765.09;;;19.74;100.00
19674;BME280;9986;50.610;7.230;2023-07-30T11:29:39;147812.02;;;19.92;100.00
19674;BME280;9986;50.610;7.230;2023-07-30T11:37:40;147827.25;;;19.98;100.00
19674;BME280;9986;50.610;7.230;2023-07-30T11:42:59;147937.66;;;20.42;100.00
19674;BME280;9986;50.610;7.230;2023-07-30T11:48:15;147950.31;;;20.47;100.00
19674;BME280;9986;50.610;7.230;2023-07-30T11:56:32;148041.78;;;20.82;100.00
19674;BME280;9986;50.610;7.230;2023-07-30T12:32:14;148083.64;;;20.99;100.00
19674;BME280;9986;50.610;7.230;2023-07-30T12:40:16;148131.86;;;21.18;100.00
19674;BME280;9986;50.610;7.230;2023-07-30T12:56:11;148336.42;;;21.98;95.67
19674;BME280;9986;50.610;7.230;2023-07-30T13:14:58;148515.66;;;22.68;100.00
19674;BME280;9986;50.610;7.230;2023-07-30T13:28:09;148546.16;;;22.80;96.54
19674;BME280;9986;50.610;7.230;2023-07-30T13:35:59;148691.20;;;23.37;86.75
19674;BME280;9986;50.610;7.230;2023-07-30T13:43:51;148494.05;;;22.60;95.71
19674;BME280;9986;50.610;7.230;2023-07-30T13:57:23;148627.56;;;23.12;87.04
19674;BME280;9986;50.610;7.230;2023-07-30T14:05:27;148613.58;;;23.06;86.65
19674;BME280;9986;50.610;7.230;2023-07-30T14:16:08;148539.83;;;22.77;86.53
19674;BME280;9986;50.610;7.230;2023-07-30T14:21:21;148577.92;;;22.92;83.95
19674;BME280;9986;50.610;7.230;2023-07-30T14:26:31;148887.20;;;24.13;84.26
19674;BME280;9986;50.610;7.230;2023-07-30T14:37:01;149022.19;;;24.66;79.59
19674;BME280;9986;50.610;7.230;2023-07-30T14:44:51;149093.52;;;24.94;73.60
19674;BME280;9986;50.610;7.230;2023-07-30T14:50:05;149125.34;;;25.06;69.59
19674;BME280;9986;50.610;7.230;2023-07-30T15:08:41;148963.53;;;24.43;71.19
19674;BME280;9986;50.610;7.230;2023-07-30T15:16:40;148754.81;;;23.62;77.55
19674;BME280;9986;50.610;7.230;2023-07-30T15:24:30;148740.81;;;23.56;81.07
19674;BME280;9986;50.610;7.230;2023-07-30T15:40:25;148829.91;;;23.91;78.40
19674;BME280;9986;50.610;7.230;2023-07-30T15:51:03;148953.39;;;24.39;76.02
19674;BME280;9986;50.610;7.230;2023-07-30T16:01:44;148976.34;;;24.48;77.10
19674;BME280;9986;50.610;7.230;2023-07-30T16:06:57;148850.25;;;23.99;74.46
19674;BME280;9986;50.610;7.230;2023-07-30T16:17:30;148968.69;;;24.45;74.11
19674;BME280;9986;50.610;7.230;2023-07-30T16:22:44;149018.34;;;24.64;78.40
19674;BME280;9986;50.610;7.230;2023-07-30T16:27:57;149045.11;;;24.75;78.05
19674;BME280;9986;50.610;7.230;2023-07-30T16:35:51;148898.64;;;24.18;76.76
19674;BME280;9986;50.610;7.230;2023-07-30T16:43:39;148945.75;;;24.36;81.57
19674;BME280;9986;50.610;7.230;2023-07-30T17:04:57;148891.00;;;24.15;79.18
19674;BME280;9986;50.610;7.230;2023-07-30T17:10:07;148827.36;;;23.90;79.68
19674;BME280;9986;50.610;7.230;2023-07-30T17:18:00;148861.70;;;24.03;79.22
19674;BME280;9986;50.610;7.230;2023-07-30T17:23:16;148845.16;;;23.97;78.41
19674;BME280;9986;50.610;7.230;2023-07-30T17:31:13;148581.78;;;22.94;77.75
19674;BME280;9986;50.610;7.230;2023-07-30T17:39:05;148621.22;;;23.09;81.25
19674;BME280;9986;50.610;7.230;2023-07-30T17:46:56;148443.17;;;22.40;95.87
19674;BME280;9986;50.610;7.230;2023-07-30T17:54:50;148436.83;;;22.37;97.75
19674;BME280;9986;50.610;7.230;2023-07-30T18:00:04;148337.67;;;21.98;100.00
19674;BME280;9986;50.610;7.230;2023-07-30T18:10:42;148271.61;;;21.72;91.88
19674;BME280;9986;50.610;7.230;2023-07-30T18:18:37;148312.27;;;21.88;95.61
19674;BME280;9986;50.610;7.230;2023-07-30T18:26:28;148308.48;;;21.87;93.46
19674;BME280;9986;50.610;7.230;2023-07-30T18:39:51;148185.22;;;21.39;100.00
19674;BME280;9986;50.610;7.230;2023-07-30T18:45:08;148190.31;;;21.41;97.64
19674;BME280;9986;50.610;7.230;2023-07-30T18:58:30;148092.53;;;21.02;100.00
19674;BME280;9986;50.610;7.230;2023-07-30T19:11:53;147989.69;;;20.62;100.00
19674;BME280;9986;50.610;7.230;2023-07-30T19:27:50;147894.50;;;20.25;100.00
19674;BME280;9986;50.610;7.230;2023-07-30T19:33:00;147897.05;;;20.26;100.00
19674;BME280;9986;50.610;7.230;2023-07-30T19:38:14;147833.63;;;20.01;100.00
19674;BME280;9986;50.610;7.230;2023-07-30T19:43:28;147782.83;;;19.81;100.00
19674;BME280;9986;50.610;7.230;2023-07-30T19:48:41;147756.22;;;19.71;100.00
19674;BME280;9986;50.610;7.230;2023-07-30T19:53:54;147812.02;;;19.92;100.00
19674;BME280;9986;50.610;7.230;2023-07-30T19:59:07;147754.94;;;19.70;100.00
19674;BME280;9986;50.610;7.230;2023-07-30T20:20:13;147571.08;;;18.98;100.00
19674;BME280;9986;50.610;7.230;2023-07-30T20:31:03;147547.00;;;18.88;100.00
19674;BME280;9986;50.610;7.230;2023-07-30T20:36:16;147558.44;;;18.93;100.00
19674;BME280;9986;50.610;7.230;2023-07-30T20:41:29;147500.12;;;18.70;100.00
19674;BME280;9986;50.610;7.230;2023-07-30T20:49:20;147535.59;;;18.84;100.00
19674;BME280;9986;50.610;7.230;2023-07-30T20:54:33;147544.45;;;18.87;100.00
19674;BME280;9986;50.610;7.230;2023-07-30T21:02:24;147563.47;;;18.95;100.00
19674;BME280;9986;50.610;7.230;2023-07-30T21:07:34;147581.23;;;19.02;100.00
19674;BME280;9986;50.610;7.230;2023-07-30T21:12:41;147626.87;;;19.20;100.00
19674;BME280;9986;50.610;7.230;2023-07-30T21:17:55;147607.91;;;19.12;100.00
19674;BME280;9986;50.610;7.230;2023-07-30T21:23:11;147647.19;;;19.28;100.00
19674;BME280;9986;50.610;7.230;2023-07-30T21:28:24;147621.84;;;19.18;100.00
19674;BME280;9986;50.610;7.230;2023-07-30T21:33:45;147597.72;;;19.08;100.00
19674;BME280;9986;50.610;7.230;2023-07-30T22:03:19;147560.94;;;18.94;100.00
19674;BME280;9986;50.610;7.230;2023-07-30T22:08:33;147616.77;;;19.16;100.00
19674;BME280;9986;50.610;7.230;2023-07-30T22:16:23;147598.95;;;19.09;100.00
19674;BME280;9986;50.610;7.230;2023-07-30T22:21:38;147614.23;;;19.15;100.00
19674;BME280;9986;50.610;7.230;2023-07-30T22:45:28;147743.53;;;19.66;100.00
19674;BME280;9986;50.610;7.230;2023-07-30T22:50:42;147771.42;;;19.76;100.00
19674;BME280;9986;50.610;7.230;2023-07-30T23:34:16;147677.61;;;19.40;100.00
19674;BME280;9986;50.610;7.230;2023-07-30T23:47:37;147642.11;;;19.26;100.00
19674;BME280;9986;50.610;7.230;2023-07-30T23:55:37;147609.16;;;19.13;100.00
